Airfield :
LOGIN :

Register | Disclaimer

   EN    FR    IT 

 










Legend :    VFR   Marginal VFR   IFR   Intensive IFR   Very Intensive IFR
Visi :
Ceiling :
>= 8 km
>= 3000ft
5 to 8 km
1000 to 3000 ft
1500m to 5 km
500 to 1000 ft
800 to 1500m
200 to 500 ft
< 800m
< 200 ft
Symbols :   Thunderstorms  Fog  Heavy snow  Heavy precipitations  Wind > 20 kt
SIGMETs :     Misc.  Thunderstorms  Icing  Turbulence  Mountain Waves  Volcanic Ashes







- Airport Elevation : 124 ft
- IATA code : RNS
- Download approach charts


LFRN - Rennes

CURRENT METAR :
  • 191330Z AUTO 34004KT 9999 SCT018 OVC024 13/11 Q1024 TEMPO 3000 RADZ BKN005

EXPIRED METARs :
  • 191300Z AUTO 34003KT 300V030 9999 FEW014 BKN021 OVC026 13/11 Q1024 TEMPO 3000 RADZ BKN005
  • 191230Z AUTO 35003KT 9999 BKN014 OVC019 12/11 Q1024 TEMPO 3000 RADZ BKN005
  • 191200Z AUTO 33005KT 290V350 9999 FEW010 BKN016 BKN021 13/11 Q1024 TEMPO 3000 RADZ BKN005
  • 191130Z AUTO 30008KT 9999 FEW009 BKN018 OVC054 13/11 Q1025 TEMPO 3000 RADZ BKN005
  • 191100Z AUTO 30007KT 9999 BKN046 OVC054 12/11 Q1025 TEMPO 3000 RADZ BKN005

TAF TAF LFRN
Valid from the 19 at 12:00 until the 20 at 12:00 UTC


191100Z 1912/2012 28005KT 9999 BKN020
TEMPO 1912/1915 3000 RADZ BKN005
BECMG 1912/1915 VRB03KT
BECMG 1920/1923 2000 BR BKN002
TEMPO 1922/2005 0400 FG VV///
TEMPO 2005/2009 1500 RADZ BR
BECMG 2009/2011 20008KT 6000 NSW BKN007
ATIS : +33 2 99 67 72 50
No reported NOTAMs for that airfield.



MET'MAP, your aeronautical weather chart ! - Copyright ORBIFLY December 2007 - Disclaimer

ORBIFLY MET'MAP TEAM :

Programming & Development : Alexandra Zaïnal
Concept & Development : Baudouin d'Aumeries
Co-Development & Prog : Marc-Olivier Méhu
Technical & hardware support : Manuel Goepfert

Contact : metmap@orbifly.com




SOURCES & CREDITS :

   NOAA